x

San Francisco - 18nm West Of San Francisco, Ca (46026) Wave Buoy

7:50pm - Mon 22nd Dec 2014 All times are PST. -8 hours from GMT.

  • Sig Wave height 9.5ft
  • Swell Direction
  • Peak Period 14s
  • Average Period 8s
  • Wind
    20mph, 25mph gusts
  • Sea Temp 60°f
  • Air Temp 60°f
  • Sea Pressure 1022.7mb
  • San Francisco - 18nm West Of San Francisco, Ca
  • San Francisco - 18nm West Of San Francisco, Ca

More Historic Weather Station data

Upgrade to MSW Pro to gain access to the past 30 days of data for over 8000 Wavebouys and Weather Stations around the globe.

Join Pro

Comparision Forecast

View Surf forecast
   
Mon 12/22 7:50pm 9.5ft 14s 8s 20 25 mph 1022.7mb 60f 60f
6:50pm 9ft 14s 7s 20 25 mph 1022.5mb 60f 60f
5:50pm 9ft 12s 7s 18 22 mph 1022.6mb 60f 59f
4:50pm 9ft 13s 7s 18 22 mph 1022.7mb 60f 59f
3:50pm 8.5ft 14s 7s 22 27 mph 1022.9mb 60f 58f
2:50pm 9ft 13s 8s 20 25 mph 1023.1mb 60f 58f
1:50pm 9ft 13s 7s 20 27 mph 1023.2mb 60f 58f
12:50pm 9ft 14s 7s 20 25 mph 1023.8mb 60f 59f
11:50am 9ft 14s 7s 20 25 mph 1024.7mb 60f 59f
10:50am 9.5ft 13s 7s 20 25 mph 1025.6mb 60f 59f
9:50am 9ft 14s 7s 22 27 mph 1025.6mb 60f 59f
8:50am 10ft 12s 8s 22 27 mph 1025.2mb 60f 59f
7:50am 9ft 14s 7s 20 25 mph 1025.1mb 60f 59f
6:50am 9ft 14s 7s 22 27 mph 1024.9mb 60f 59f
5:50am 9ft 14s 7s 22 29 mph 1024.6mb 60f 60f
4:50am 9.5ft 14s 7s 22 27 mph 1024.7mb 60f 60f
3:50am 9ft 14s 7s 25 29 mph 1024.9mb 60f 59f
2:50am 9ft 14s 7s 22 27 mph 1025mb 60f 60f
1:50am 9.5ft 14s 7s 25 29 mph 1025.1mb 60f 59f
12:50am 10ft 14s 8s 22 27 mph 1025.3mb 60f 59f
Sun 12/21 11:50pm 11ft 14s 8s 22 27 mph 1025.5mb 60f 59f
10:50pm 10ft 14s 8s 22 27 mph 1025.6mb 60f 59f
9:50pm 10ft 14s 8s 22 29 mph 1025.6mb 60f 60f
8:50pm 11ft 15s 8s 25 31 mph 1025.6mb 60f 60f
7:50pm 10.5ft 14s 8s 25 27 mph 1025.9mb 60f 60f
6:50pm 10.5ft 14s 8s 20 25 mph 1026.3mb 60f 60f
5:50pm 10ft 15s 8s 18 20 mph 1026mb 60f 60f
4:50pm 10ft 14s 8s 16 22 mph 1026mb 60f 60f
3:50pm 9.5ft 13s 8s 16 20 mph 1025.8mb 60f 60f
2:50pm 10ft 14s 9s 16 20 mph 1025.6mb 60f 60f
1:50pm 9ft 14s 8s 16 22 mph 1025.7mb 60f 60f
12:50pm 8.5ft 15s 8s 16 20 mph 1026.1mb 60f 60f
11:50am 9ft 14s 9s 16 20 mph 1026.2mb 60f 60f
10:50am 9ft 13s 9s 16 20 mph 1026.4mb 60f 60f
9:50am 9ft 14s 9s 18 22 mph 1026.5mb 60f 60f
8:50am 9.5ft 15s 9s 16 18 mph 1026.3mb 60f 60f
7:50am 10ft 12s 9s 13 18 mph 1025.3mb 60f 60f
6:50am 11ft 15s 10s 13 18 mph 1025.5mb 60f 59f
5:50am 10ft 14s 9s 16 20 mph 1025mb 60f 60f
4:50am 11ft 15s 10s 16 20 mph 1024.7mb 60f 60f
3:50am 12.5ft 15s 10s 13 18 mph 1024.9mb 60f 60f
2:50am 10ft 15s 9s 13 18 mph 1025.3mb 60f 60f
1:50am 10ft 15s 9s 11 16 mph 1024.9mb 60f 60f
12:50am 12ft 15s 10s 11 16 mph 1024.4mb 60f 60f
Sat 12/20 11:50pm 11ft 15s 10s 13 16 mph 1024.6mb 60f 60f
10:50pm 11ft 16s 10s 11 13 mph 1024.5mb 60f 60f
9:50pm 11ft 15s 10s 11 16 mph 1024.3mb 60f 60f
8:50pm 10ft 16s 10s 13 16 mph 1023.9mb 60f 60f
7:50pm 9ft 16s 9s 16 20 mph 1023.6mb 60f 58f
6:50pm 11ft 16s 10s 16 20 mph 1023.2mb 60f 58f
5:50pm 10ft 16s 10s 13 16 mph 1023.2mb 60f 58f
4:50pm 11ft 16s 11s 13 16 mph 1023.1mb 60f 59f
3:50pm 10.5ft 16s 11s 11 13 mph 1023mb 60f 60f
2:50pm 10.5ft 17s 11s 11 13 mph 1022.1mb 60f 60f
1:50pm 12ft 17s 12s 9 11 mph 1022.5mb 60f 60f
12:50pm 10.5ft 16s 11s 7 9 mph 1022.9mb 60f 60f
11:50am 11ft 17s 11s 7 9 mph 1022.5mb 60f 60f
10:50am 11ft 16s 11s 4 7 mph 1023.5mb 60f 60f
9:50am 13ft 16s 12s 2 4 mph 1023.1mb 60f 60f
8:50am 12.5ft 16s 11s 4 9 mph 1022.5mb 60f 60f
7:50am 14ft 17s 12s 9 13 mph 1021.4mb 60f 59f
6:50am 13.5ft 17s 12s 4 7 mph 1021.1mb 60f 58f
5:50am 14.5ft 16s 12s  -  4 mph 1020.8mb 60f 59f
4:50am 14ft 16s 12s 2 4 mph 1020.7mb 60f 58f
3:50am 16ft 17s 13s 2 4 mph 1020.6mb 60f 58f
2:50am 15ft 17s 12s  -  4 mph 1021.1mb 60f 58f
1:50am 14.5ft 17s 12s  -  4 mph 1021.1mb 60f 58f
12:50am 13ft 17s 11s 4 7 mph 1020.7mb 60f 58f
Fri 12/19 11:50pm 12ft 17s 11s 4 7 mph 1021.2mb 60f 58f
10:50pm 11ft 12s 10s 4 9 mph 1021.2mb 60f 58f
9:50pm 12.5ft 19s 12s 4 9 mph 1021mb 60f 58f
8:50pm 10.5ft 14s 10s 4 9 mph 1020.5mb 60f 58f
7:50pm 10ft 19s 9s 4 7 mph 1020.1mb 60f 58f
6:50pm 11ft 19s 9s 2 4 mph 1020.6mb 60f 58f
5:50pm 9.5ft 19s 9s 7 9 mph 1020.3mb 60f 58f
4:50pm 9ft 14s 8s 4 7 mph 1020.9mb 60f 58f
3:50pm 7.5ft 21s 8s 2 4 mph 1020.8mb 60f 58f
2:50pm 8ft 21s 8s 2 4 mph 1020.5mb 60f 57f
1:50pm 7.5ft 14s 7s 2 7 mph 1020.2mb 60f 57f
12:50pm 7.5ft 11s 7s  -  2 mph 1020.5mb 60f 55f
11:50am 7ft 15s 6s 9 11 mph 1020.4mb 60f 56f
10:50am 7ft 11s 6s 11 16 mph 1020.8mb 60f 56f
9:50am 8ft 11s 6s 22 29 mph 1020.4mb 60f 59f
8:50am 7ft 6s 6s 18 22 mph 1020.4mb 60f 59f
7:50am 7ft 14s 6s 25 31 mph 1019.5mb 60f 59f
6:50am 7ft 12s 6s 22 27 mph 1018.7mb 60f 59f
5:50am 7ft 13s 6s 22 27 mph 1018.9mb 60f 59f